Time;durP1;ratioP1;P1;durP2;ratioP2;P2;SDS_P1;SDS_P2;PMS_P1;PMS_P2;Temp;Humidity;BMP_temperature;BMP_pressure;BME280_temperature;BME280_humidity;BME280_pressure;Samples;Min_cycle;Max_cycle;Signal;HPM_P1;HPM_P2
2023/03/13 00:01:47;;;;;;;;;8.60;6.60;;;;;10.10;36.66;98300.09;6296419;27;96237;-59
2023/03/13 00:04:51;;;;;;;;;8.80;7.80;;;;;10.31;36.48;98320.31;6290452;27;96490;-57
2023/03/13 00:07:55;;;;;;;;;10.00;9.50;;;;;10.37;36.69;98314.78;6304849;27;96355;-57
2023/03/13 00:10:58;;;;;;;;;10.40;9.40;;;;;10.48;36.67;98320.41;6291336;27;96356;-57
2023/03/13 00:14:05;;;;;;;;;9.00;9.00;;;;;10.48;36.93;98323.09;6291189;27;97312;-57
2023/03/13 00:17:08;;;;;;;;;10.00;8.00;;;;;10.54;37.13;98322.19;6288146;27;96647;-57
2023/03/13 00:20:12;;;;;;;;;9.60;9.60;;;;;10.57;37.03;98337.88;6289352;27;96272;-57
2023/03/13 00:23:15;;;;;;;;;7.00;7.00;;;;;10.53;37.30;98342.91;6310283;27;96686;-58
2023/03/13 00:26:21;;;;;;;;;10.20;9.80;;;;;10.64;37.24;98346.66;6297719;27;98790;-57
2023/03/13 00:29:26;;;;;;;;;6.20;6.20;;;;;10.64;37.31;98341.28;6293033;27;96977;-57
2023/03/13 00:32:29;;;;;;;;;7.60;7.60;;;;;10.52;39.20;98322.41;6287465;27;96630;-57
2023/03/13 00:35:33;;;;;;;;;5.60;5.60;;;;;10.44;39.83;98314.69;6288972;27;97531;-57
2023/03/13 00:38:36;;;;;;;;;8.20;7.20;;;;;10.40;40.43;98311.66;6305804;27;96394;-57
2023/03/13 00:41:39;;;;;;;;;7.25;7.25;;;;;10.46;40.46;98314.44;6296626;27;96758;-57
2023/03/13 00:44:44;;;;;;;;;9.60;9.60;;;;;10.53;40.51;98294.41;6198692;28;96461;-57
2023/03/13 00:47:48;;;;;;;;;7.80;7.80;;;;;10.62;40.52;98282.19;6208647;28;96788;-56
2023/03/13 00:50:52;;;;;;;;;10.40;10.40;;;;;10.69;40.37;98282.09;6277187;27;96244;-57
2023/03/13 00:53:58;;;;;;;;;8.60;8.60;;;;;10.76;40.39;98290.84;6277020;27;96279;-57
2023/03/13 00:57:02;;;;;;;;;6.80;6.80;;;;;10.77;40.06;98287.91;6258910;27;96637;-57
2023/03/13 01:00:08;;;;;;;;;7.00;7.00;;;;;10.75;40.06;98287.31;6262727;27;99245;-56
2023/03/13 01:03:11;;;;;;;;;9.60;9.60;;;;;10.68;40.86;98286.66;6199008;27;96311;-57
2023/03/13 01:06:17;;;;;;;;;5.20;5.20;;;;;10.71;41.03;98274.56;6193643;28;96465;-57
2023/03/13 01:09:21;;;;;;;;;8.00;8.00;;;;;10.73;41.22;98285.94;6240681;27;96667;-57
2023/03/13 01:12:25;;;;;;;;;7.00;7.00;;;;;10.74;41.45;98279.50;6274938;27;96945;-57
2023/03/13 01:15:30;;;;;;;;;9.60;9.40;;;;;10.72;41.79;98277.03;6212057;28;96572;-57
2023/03/13 01:18:34;;;;;;;;;10.00;9.25;;;;;10.76;41.84;98267.41;6272120;27;97419;-57
2023/03/13 01:21:37;;;;;;;;;12.00;11.40;;;;;10.80;41.92;98259.66;6210640;28;96324;-58
2023/03/13 01:24:40;;;;;;;;;10.60;10.60;;;;;10.74;41.98;98256.06;6280714;27;96278;-57
2023/03/13 01:27:44;;;;;;;;;8.40;8.00;;;;;10.62;42.56;98249.84;6280076;27;96328;-57
2023/03/13 01:30:49;;;;;;;;;8.20;8.20;;;;;10.66;42.17;98252.88;6201272;28;96478;-56
2023/03/13 01:33:55;;;;;;;;;6.00;6.00;;;;;10.60;42.63;98249.28;6280395;27;96690;-57
2023/03/13 01:36:58;;;;;;;;;8.60;8.60;;;;;10.62;42.53;98246.34;6281213;27;96263;-57
2023/03/13 01:40:02;;;;;;;;;8.20;7.80;;;;;10.67;42.32;98252.66;6278311;27;96203;-62
2023/03/13 01:43:17;;;;;;;;;7.00;7.00;;;;;10.70;42.21;98251.38;6186593;28;97328;-62
2023/03/13 01:46:31;;;;;;;;;7.00;7.00;;;;;10.75;42.25;98257.66;6253479;27;96032;-62
2023/03/13 01:50:02;;;;;;;;;7.60;7.60;;;;;10.83;42.43;98251.94;6269304;27;96624;-62
2023/03/13 01:53:26;;;;;;;;;9.00;8.60;;;;;10.67;42.73;98241.06;6260730;27;96715;-62
2023/03/13 01:56:37;;;;;;;;;11.00;10.00;;;;;10.82;42.47;98252.97;6262550;27;96288;-62
2023/03/13 01:59:44;;;;;;;;;9.00;8.60;;;;;10.76;42.72;98263.88;6278624;27;96508;-62
2023/03/13 02:02:53;;;;;;;;;8.00;8.00;;;;;10.75;43.01;98259.56;6271064;27;96316;-62
2023/03/13 02:06:00;;;;;;;;;9.50;9.00;;;;;10.68;43.14;98264.25;6263567;27;96659;-62
2023/03/13 02:09:09;;;;;;;;;8.00;7.00;;;;;10.72;43.01;98278.91;6261901;27;96460;-61
2023/03/13 02:12:16;;;;;;;;;8.00;8.00;;;;;10.80;42.66;98283.91;6206728;28;96196;-62
2023/03/13 02:15:23;;;;;;;;;8.00;7.00;;;;;10.84;42.85;98287.81;6279477;27;96717;-62
2023/03/13 02:18:28;;;;;;;;;6.00;6.00;;;;;10.85;42.86;98275.94;6258816;27;97040;-62
2023/03/13 02:21:40;;;;;;;;;6.75;6.75;;;;;10.86;42.79;98277.56;6274174;27;96241;-62
2023/03/13 02:24:51;;;;;;;;;10.00;9.25;;;;;10.82;43.09;98289.91;6197513;28;96435;-62
2023/03/13 02:28:00;;;;;;;;;8.00;8.00;;;;;10.85;43.31;98286.72;6273520;27;96583;-62
2023/03/13 02:31:06;;;;;;;;;8.40;8.00;;;;;10.96;43.02;98295.84;6257824;27;98596;-62
2023/03/13 02:34:14;;;;;;;;;7.00;6.00;;;;;11.05;42.89;98297.94;6279464;27;96313;-62
2023/03/13 02:37:18;;;;;;;;;7.00;7.00;;;;;11.11;42.98;98296.97;6278365;27;96300;-62
2023/03/13 02:40:26;;;;;;;;;8.00;7.00;;;;;11.17;42.85;98298.72;6271907;27;96589;-62
2023/03/13 02:43:34;;;;;;;;;9.00;8.25;;;;;11.20;42.90;98317.13;6256228;27;96578;-62
2023/03/13 02:46:49;;;;;;;;;9.00;9.00;;;;;11.14;43.29;98320.78;6250999;27;96678;-62
2023/03/13 02:49:54;;;;;;;;;9.00;9.00;;;;;11.18;43.28;98321.13;6276630;27;96428;-62
2023/03/13 02:53:00;;;;;;;;;8.00;8.00;;;;;11.22;42.99;98325.00;6278277;27;96828;-62
2023/03/13 02:56:06;;;;;;;;;8.00;7.00;;;;;11.23;43.36;98322.06;6239229;27;96998;-62
2023/03/13 02:59:11;;;;;;;;;8.00;7.00;;;;;11.17;43.29;98328.41;6270749;27;96737;-62
2023/03/13 03:02:18;;;;;;;;;8.50;8.50;;;;;11.33;43.26;98334.94;6255386;27;97035;-62
2023/03/13 03:05:22;;;;;;;;;8.00;8.00;;;;;11.18;43.65;98338.16;6265939;27;97748;-62
2023/03/13 03:08:26;;;;;;;;;8.00;8.00;;;;;11.27;43.60;98333.19;6202523;28;96827;-62
2023/03/13 03:11:29;;;;;;;;;10.00;10.00;;;;;11.30;43.78;98332.69;6262581;27;98493;-61
2023/03/13 03:14:38;;;;;;;;;6.00;6.00;;;;;11.22;43.99;98325.81;6271998;27;96383;-62
2023/03/13 03:17:42;;;;;;;;;7.00;6.00;;;;;11.26;44.24;98337.75;6244847;27;96884;-62
2023/03/13 03:20:46;;;;;;;;;10.00;10.00;;;;;11.27;44.30;98330.50;6258255;27;99885;-62
2023/03/13 03:23:50;;;;;;;;;9.00;9.00;;;;;11.35;44.04;98329.28;6268032;27;96413;-62
2023/03/13 03:26:53;;;;;;;;;9.25;9.25;;;;;11.35;43.99;98331.97;6193402;28;96821;-63
2023/03/13 03:30:03;;;;;;;;;7.00;7.00;;;;;11.41;44.12;98333.72;6242966;27;98471;-62
2023/03/13 03:33:08;;;;;;;;;9.00;9.00;;;;;11.47;43.91;98330.88;6275640;27;96283;-62
2023/03/13 03:36:14;;;;;;;;;8.00;7.40;;;;;11.53;44.08;98335.31;6260220;27;96630;-62
2023/03/13 03:39:19;;;;;;;;;6.00;6.00;;;;;11.40;44.49;98337.47;6272665;27;96823;-62
2023/03/13 03:42:24;;;;;;;;;8.00;8.00;;;;;11.46;44.22;98331.13;6252327;27;96679;-62
2023/03/13 03:45:28;;;;;;;;;8.00;8.00;;;;;11.47;44.33;98328.19;6274156;27;96631;-58
2023/03/13 03:48:33;;;;;;;;;7.00;7.00;;;;;11.47;44.46;98330.88;6273249;27;97935;-59
2023/03/13 03:51:39;;;;;;;;;8.25;8.25;;;;;11.54;44.51;98341.53;6246459;27;96701;-58
2023/03/13 03:54:42;;;;;;;;;6.60;6.60;;;;;11.56;44.42;98339.41;6277095;27;98183;-58
2023/03/13 03:57:47;;;;;;;;;7.60;7.60;;;;;11.65;44.17;98338.78;6248272;27;98381;-58
2023/03/13 04:01:00;;;;;;;;;6.00;5.00;;;;;11.71;44.17;98335.13;6259577;27;97081;-58
2023/03/13 04:04:03;;;;;;;;;6.40;6.40;;;;;11.79;44.29;98336.63;6245543;27;96980;-58
2023/03/13 04:07:07;;;;;;;;;6.20;6.00;;;;;11.82;44.16;98336.16;6239612;27;98361;-59
2023/03/13 04:10:11;;;;;;;;;8.00;8.00;;;;;11.86;44.28;98336.50;6270450;27;96677;-58
2023/03/13 04:13:19;;;;;;;;;7.00;7.00;;;;;11.89;44.33;98344.91;6272129;27;96261;-58
2023/03/13 04:16:24;;;;;;;;;7.00;5.00;;;;;11.90;44.40;98335.75;6269577;27;96401;-59
2023/03/13 04:19:29;;;;;;;;;8.80;8.40;;;;;11.94;44.16;98334.19;6262486;27;96899;-58
2023/03/13 04:22:33;;;;;;;;;6.00;6.00;;;;;11.86;44.53;98345.41;6190938;28;96304;-58
2023/03/13 04:25:37;;;;;;;;;6.00;5.75;;;;;11.90;44.65;98346.56;6272019;27;96401;-58
2023/03/13 04:28:44;;;;;;;;;7.00;7.00;;;;;11.76;45.09;98336.31;6280913;27;96680;-58
2023/03/13 04:31:53;;;;;;;;;7.00;6.00;;;;;11.81;45.08;98350.72;6256491;27;96887;-58
2023/03/13 04:35:18;;;;;;;;;9.00;9.00;;;;;11.87;44.79;98346.22;6191412;27;96673;-58
2023/03/13 04:38:34;;;;;;;;;6.00;6.00;;;;;11.81;45.13;98344.50;6267298;27;97017;-58
2023/03/13 04:41:38;;;;;;;;;7.00;7.00;;;;;11.81;45.11;98337.22;6194128;27;97069;-59
2023/03/13 04:44:44;;;;;;;;;9.40;9.00;;;;;11.81;45.01;98337.22;6197787;28;96327;-58
2023/03/13 04:48:21;;;;;;;;;8.00;7.00;;;;;11.79;45.55;98333.94;6207280;27;96394;-58
2023/03/13 04:51:35;;;;;;;;;6.00;6.00;;;;;11.81;45.46;98334.53;6189527;28;96525;-58
2023/03/13 04:54:52;;;;;;;;;8.00;8.00;;;;;11.73;45.90;98343.00;6252909;27;97191;-59
2023/03/13 04:58:16;;;;;;;;;7.40;7.40;;;;;11.78;45.76;98342.28;6196153;27;96913;-58
2023/03/13 05:01:39;;;;;;;;;10.00;10.00;;;;;11.75;45.88;98340.06;6269870;27;98442;-58
2023/03/13 05:04:59;;;;;;;;;6.00;6.00;;;;;11.78;46.00;98340.38;6276821;27;96288;-58
2023/03/13 05:08:26;;;;;;;;;6.40;6.00;;;;;11.87;45.64;98338.13;6207988;27;96799;-58
2023/03/13 05:11:40;;;;;;;;;6.00;6.00;;;;;11.89;45.89;98336.81;6257913;27;98468;-58
2023/03/13 05:15:02;;;;;;;;;7.00;6.80;;;;;11.87;46.02;98330.84;6203917;27;96807;-58
2023/03/13 05:18:28;;;;;;;;;7.00;7.00;;;;;11.90;45.88;98332.22;6206717;27;97550;-58
2023/03/13 05:21:59;;;;;;;;;5.50;5.00;;;;;11.92;46.31;98332.81;6206106;28;96435;-58
2023/03/13 05:25:22;;;;;;;;;6.60;6.60;;;;;11.94;46.01;98333.38;6274767;27;96914;-58
2023/03/13 05:28:46;;;;;;;;;3.00;3.00;;;;;11.88;46.26;98324.38;6230232;27;97515;-58
2023/03/13 05:32:12;;;;;;;;;6.00;6.00;;;;;11.94;46.27;98318.00;6199116;27;96729;-58
2023/03/13 05:35:34;;;;;;;;;6.00;6.00;;;;;11.95;46.62;98319.63;6198459;28;96386;-58
2023/03/13 05:38:59;;;;;;;;;7.60;7.00;;;;;12.07;46.29;98303.38;6263328;27;99142;-58
2023/03/13 05:42:22;;;;;;;;;5.00;5.00;;;;;11.99;46.19;98309.97;6267087;27;96439;-58
2023/03/13 05:45:44;;;;;;;;;5.00;4.00;;;;;12.08;46.39;98307.69;6203943;28;97130;-58
2023/03/13 05:49:10;;;;;;;;;5.60;5.60;;;;;12.12;46.53;98314.22;6254058;27;96654;-58
2023/03/13 05:52:34;;;;;;;;;6.40;6.40;;;;;12.02;46.87;98305.97;6204196;27;98023;-59
2023/03/13 05:55:42;;;;;;;;;5.40;5.40;;;;;12.08;46.67;98311.22;6262558;27;96813;-58
2023/03/13 05:59:11;;;;;;;;;8.00;8.00;;;;;12.06;46.90;98307.94;6279202;27;97233;-61
2023/03/13 06:02:39;;;;;;;;;8.00;7.75;;;;;12.08;47.18;98305.81;6295401;27;97694;-61
2023/03/13 06:05:45;;;;;;;;;8.00;7.60;;;;;12.13;47.09;98303.19;6286021;27;96292;-62
2023/03/13 06:09:06;;;;;;;;;7.00;6.60;;;;;12.12;47.39;98301.53;6270472;27;97651;-61
2023/03/13 06:12:13;;;;;;;;;8.00;7.00;;;;;12.28;47.19;98302.59;6207791;28;96298;-61
2023/03/13 06:15:17;;;;;;;;;7.00;6.00;;;;;12.29;46.94;98304.25;6276450;27;96509;-61
2023/03/13 06:18:41;;;;;;;;;8.40;8.40;;;;;12.33;46.43;98299.16;6283456;27;97207;-61
2023/03/13 06:21:44;;;;;;;;;6.50;6.50;;;;;12.39;46.27;98296.28;6208792;28;96275;-61
2023/03/13 06:24:48;;;;;;;;;7.00;6.60;;;;;12.46;46.07;98296.94;6268103;27;98797;-61
2023/03/13 06:27:53;;;;;;;;;7.00;7.00;;;;;12.40;46.12;98292.53;6207732;27;96367;-61
2023/03/13 06:31:01;;;;;;;;;7.60;7.60;;;;;12.53;45.94;98305.69;6277982;27;96355;-61
2023/03/13 06:34:04;;;;;;;;;7.25;6.25;;;;;12.57;45.83;98306.84;6206833;28;96861;-61
2023/03/13 06:37:08;;;;;;;;;6.00;6.00;;;;;12.78;45.23;98297.13;6216610;28;96233;-62
2023/03/13 06:40:12;;;;;;;;;9.00;8.00;;;;;12.83;45.13;98285.56;6269356;27;98643;-62
2023/03/13 06:43:17;;;;;;;;;7.00;6.00;;;;;12.98;44.83;98288.47;6269834;27;97030;-61
2023/03/13 06:46:22;;;;;;;;;6.40;6.40;;;;;13.05;44.69;98293.69;6266265;27;96776;-61
2023/03/13 06:49:25;;;;;;;;;8.00;7.00;;;;;13.10;44.55;98291.00;6273454;27;96869;-62
2023/03/13 06:52:29;;;;;;;;;7.80;7.00;;;;;13.13;44.20;98295.97;6268743;27;95995;-62
2023/03/13 06:55:47;;;;;;;;;8.00;8.00;;;;;13.20;44.03;98289.28;6260572;27;99075;-62
2023/03/13 06:58:52;;;;;;;;;7.40;7.00;;;;;13.30;43.80;98291.28;6194306;28;96509;-61
2023/03/13 07:01:55;;;;;;;;;7.00;7.00;;;;;13.25;43.84;98297.47;6264109;27;97300;-61
2023/03/13 07:04:59;;;;;;;;;8.20;7.60;;;;;13.40;43.72;98288.69;6206861;28;96294;-61
2023/03/13 07:08:02;;;;;;;;;7.00;7.00;;;;;13.57;43.41;98280.50;6200501;28;96645;-61
2023/03/13 07:11:08;;;;;;;;;8.40;6.00;;;;;13.91;42.83;98281.09;6212450;28;96804;-61
2023/03/13 07:14:13;;;;;;;;;5.50;5.50;;;;;14.10;42.27;98277.72;6211916;28;96333;-61
2023/03/13 07:17:19;;;;;;;;;6.00;6.00;;;;;14.65;41.34;98271.91;6239773;27;96883;-62
2023/03/13 07:20:23;;;;;;;;;5.80;5.20;;;;;15.39;40.02;98279.00;6268827;27;96267;-61
2023/03/13 07:23:29;;;;;;;;;8.00;7.00;;;;;15.98;38.91;98282.09;6270654;27;96405;-63
2023/03/13 07:26:32;;;;;;;;;7.00;7.00;;;;;16.34;38.30;98274.75;6251761;27;96764;-63
2023/03/13 07:29:37;;;;;;;;;6.00;5.00;;;;;16.34;38.25;98283.75;6272130;27;96664;-62
2023/03/13 07:32:43;;;;;;;;;6.00;6.00;;;;;16.72;37.92;98278.81;6323457;27;96882;-62
2023/03/13 07:35:51;;;;;;;;;7.00;7.00;;;;;16.73;37.35;98278.53;6260184;27;97135;-62
2023/03/13 07:38:55;;;;;;;;;7.80;6.20;;;;;17.13;36.89;98274.88;6301455;27;96211;-62
2023/03/13 07:41:58;;;;;;;;;6.75;6.00;;;;;17.80;35.82;98267.97;6230634;27;96272;-62
2023/03/13 07:45:05;;;;;;;;;7.00;6.00;;;;;18.74;34.56;98258.44;6289308;27;98526;-62
2023/03/13 07:48:08;;;;;;;;;5.00;5.00;;;;;19.30;33.58;98258.56;6228910;27;96306;-63
2023/03/13 07:51:15;;;;;;;;;6.00;5.75;;;;;19.85;32.74;98253.44;6231442;27;96374;-62
2023/03/13 07:54:18;;;;;;;;;8.00;8.00;;;;;20.54;31.54;98246.28;6296666;27;96366;-63
2023/03/13 07:57:21;;;;;;;;;5.00;5.00;;;;;21.09;30.93;98230.69;6235963;27;98759;-62
2023/03/13 08:00:26;;;;;;;;;4.80;4.80;;;;;21.62;30.30;98230.94;6302468;27;96391;-62
2023/03/13 08:03:30;;;;;;;;;5.00;4.00;;;;;22.49;29.26;98230.44;6318018;27;99190;-62
2023/03/13 08:06:35;;;;;;;;;3.80;3.80;;;;;22.84;28.68;98223.22;6294042;27;96387;-62
2023/03/13 08:09:40;;;;;;;;;4.20;4.20;;;;;22.95;27.97;98234.75;6276319;27;96244;-62
2023/03/13 08:12:43;;;;;;;;;6.00;5.00;;;;;22.67;28.37;98240.44;6297083;27;96240;-62
2023/03/13 08:15:48;;;;;;;;;3.00;3.00;;;;;22.84;28.41;98231.47;6312416;27;96360;-62
2023/03/13 08:18:54;;;;;;;;;6.40;6.00;;;;;22.33;28.83;98223.75;6310943;27;96387;-62
2023/03/13 08:21:57;;;;;;;;;4.00;4.00;;;;;22.16;28.52;98226.38;6280554;27;96640;-62
2023/03/13 08:25:01;;;;;;;;;4.00;3.25;;;;;22.74;28.13;98207.00;6311000;27;96658;-62
2023/03/13 08:28:04;;;;;;;;;3.00;3.00;;;;;23.25;27.46;98215.44;6261434;27;96282;-62
2023/03/13 08:31:11;;;;;;;;;5.00;4.00;;;;;23.32;27.62;98206.69;6268683;27;98595;-63
2023/03/13 08:34:16;;;;;;;;;4.20;4.20;;;;;22.64;28.22;98215.50;6324822;27;96815;-62
2023/03/13 08:37:19;;;;;;;;;3.00;3.00;;;;;22.11;29.01;98213.59;6250083;27;96980;-62
2023/03/13 08:40:22;;;;;;;;;4.00;3.60;;;;;21.20;30.20;98204.75;6215135;27;96365;-62
2023/03/13 08:43:25;;;;;;;;;3.75;3.00;;;;;20.78;30.73;98197.63;6253061;27;96647;-63
2023/03/13 08:46:32;;;;;;;;;6.00;6.00;;;;;20.66;31.29;98197.34;6296553;27;96805;-62
2023/03/13 08:49:36;;;;;;;;;4.00;4.00;;;;;20.71;30.86;98195.31;6214323;27;96203;-62
2023/03/13 08:52:39;;;;;;;;;4.00;3.00;;;;;20.37;31.73;98194.06;6249870;27;96661;-62
2023/03/13 08:55:42;;;;;;;;;4.50;4.50;;;;;20.12;31.80;98189.81;6279934;27;96102;-62
2023/03/13 08:58:50;;;;;;;;;6.00;5.00;;;;;19.92;32.05;98188.25;6302960;27;97315;-62
2023/03/13 09:01:55;;;;;;;;;6.00;5.00;;;;;19.97;31.91;98185.41;6278568;27;97056;-62
2023/03/13 09:04:58;;;;;;;;;5.80;5.00;;;;;20.49;30.85;98184.22;6254753;27;96433;-62
2023/03/13 09:08:01;;;;;;;;;5.00;5.00;;;;;20.74;30.54;98170.03;6275158;27;96236;-62
2023/03/13 09:11:07;;;;;;;;;7.00;7.00;;;;;21.18;29.46;98171.34;6289448;27;96615;-62
2023/03/13 09:14:10;;;;;;;;;6.00;5.60;;;;;21.60;28.89;98172.81;6302930;27;96391;-63
2023/03/13 09:17:15;;;;;;;;;9.00;9.00;;;;;22.09;28.27;98171.91;6241386;27;98510;-62
2023/03/13 09:20:19;;;;;;;;;5.60;5.40;;;;;22.15;27.96;98178.09;6266928;27;96292;-63
2023/03/13 09:23:22;;;;;;;;;6.00;5.00;;;;;22.48;27.91;98156.63;6334769;27;98654;-62
2023/03/13 09:26:27;;;;;;;;;4.00;3.00;;;;;23.05;27.22;98160.22;6277373;27;96613;-63
2023/03/13 09:29:32;;;;;;;;;5.40;5.00;;;;;23.03;26.47;98159.72;6282993;27;96424;-63
2023/03/13 09:32:37;;;;;;;;;5.00;5.00;;;;;23.48;26.08;98171.31;6289084;27;96794;-63
2023/03/13 09:35:40;;;;;;;;;4.60;4.00;;;;;23.64;26.25;98158.69;6289139;27;96649;-62
2023/03/13 09:38:44;;;;;;;;;6.00;5.00;;;;;23.92;25.48;98161.88;6306374;27;98330;-62
2023/03/13 09:41:55;;;;;;;;;4.75;4.25;;;;;24.20;25.12;98159.59;6280113;27;96310;-61
2023/03/13 09:45:03;;;;;;;;;2.00;1.80;;;;;24.43;25.34;98161.81;6301406;27;97079;-61
2023/03/13 09:48:18;;;;;;;;;4.80;4.80;;;;;24.66;24.59;98153.28;6275693;27;99486;-61
2023/03/13 09:51:27;;;;;;;;;3.20;3.20;;;;;25.15;24.03;98151.72;6284699;27;96940;-61
2023/03/13 09:54:37;;;;;;;;;4.00;3.00;;;;;25.13;23.88;98151.25;6258118;27;96358;-62
2023/03/13 09:57:49;;;;;;;;;6.00;5.00;;;;;25.40;23.71;98135.00;6248833;27;97094;-62
2023/03/13 10:00:56;;;;;;;;;4.00;3.60;;;;;25.88;23.22;98144.66;6239540;27;96259;-62
2023/03/13 10:04:08;;;;;;;;;5.00;4.00;;;;;25.66;23.20;98134.78;6258973;27;96882;-63
2023/03/13 10:07:12;;;;;;;;;6.00;4.00;;;;;25.48;23.30;98140.78;6317259;27;98993;-62
2023/03/13 10:10:18;;;;;;;;;4.50;4.50;;;;;25.41;23.19;98124.78;6283508;27;96328;-63
2023/03/13 10:13:28;;;;;;;;;2.00;2.00;;;;;25.43;23.62;98117.75;6195080;27;96417;-62
2023/03/13 10:16:38;;;;;;;;;3.50;3.00;;;;;25.60;23.17;98107.75;6249297;27;96338;-62
2023/03/13 10:19:46;;;;;;;;;3.50;3.50;;;;;25.86;22.82;98114.63;6285073;27;96248;-62
2023/03/13 10:22:54;;;;;;;;;5.00;5.00;;;;;25.90;22.78;98125.81;6300077;27;96356;-62
2023/03/13 10:25:58;;;;;;;;;6.00;4.00;;;;;25.96;22.33;98102.34;6259964;27;96385;-63
2023/03/13 10:29:19;;;;;;;;;3.20;3.20;;;;;25.92;22.32;98112.47;6270022;27;96208;-62
2023/03/13 10:32:28;;;;;;;;;3.40;3.40;;;;;25.97;22.33;98097.63;6222282;27;96769;-62
2023/03/13 10:35:36;;;;;;;;;2.80;2.00;;;;;25.66;22.52;98093.38;6243939;27;96390;-63
2023/03/13 10:38:49;;;;;;;;;2.60;2.00;;;;;25.83;22.82;98086.91;6229513;27;96578;-62
2023/03/13 10:41:59;;;;;;;;;3.00;2.80;;;;;25.82;22.50;98085.28;6238999;27;96277;-63
2023/03/13 10:45:06;;;;;;;;;2.00;2.00;;;;;26.39;22.07;98076.22;6315366;27;96509;-62
2023/03/13 10:48:14;;;;;;;;;2.00;2.00;;;;;26.59;21.07;98078.03;6261984;27;96410;-62
2023/03/13 10:51:23;;;;;;;;;3.00;3.00;;;;;26.27;21.07;98054.91;6264517;27;97000;-63
2023/03/13 10:54:29;;;;;;;;;3.00;2.00;;;;;26.32;20.67;98053.84;6300156;27;96563;-62
2023/03/13 10:57:34;;;;;;;;;2.00;2.00;;;;;26.06;21.40;98046.66;6216097;27;96895;-63
2023/03/13 11:00:40;;;;;;;;;3.00;2.00;;;;;25.87;20.62;98043.63;6265189;27;96613;-62
2023/03/13 11:03:44;;;;;;;;;2.00;2.00;;;;;25.61;21.06;98046.66;6258310;27;96286;-63
2023/03/13 11:06:52;;;;;;;;;1.20;1.20;;;;;25.38;21.55;98050.94;6217984;27;96237;-63
2023/03/13 11:10:01;;;;;;;;;3.20;3.20;;;;;24.86;22.14;98058.78;6259598;27;98367;-63
2023/03/13 11:13:04;;;;;;;;;4.00;3.00;;;;;24.39;22.50;98038.78;6301613;27;96242;-63
2023/03/13 11:16:19;;;;;;;;;4.00;3.00;;;;;24.61;22.59;98033.00;6264066;27;98571;-63
2023/03/13 11:19:54;;;;;;;;;3.60;3.00;;;;;24.34;22.78;98030.72;6200460;28;97933;-63
2023/03/13 11:23:15;;;;;;;;;3.00;2.00;;;;;24.10;22.48;98021.09;6267453;27;98413;-63
2023/03/13 11:26:28;;;;;;;;;3.00;3.00;;;;;23.86;23.12;98025.56;6264008;27;98336;-63
2023/03/13 11:29:40;;;;;;;;;4.00;3.60;;;;;23.39;23.34;98027.44;6266141;27;96311;-63
2023/03/13 11:32:50;;;;;;;;;2.00;2.00;;;;;22.78;23.62;98021.13;6276352;27;96702;-62
2023/03/13 11:36:02;;;;;;;;;2.00;2.00;;;;;22.58;24.32;98016.25;6202823;27;96740;-62
2023/03/13 11:39:37;;;;;;;;;3.60;3.00;;;;;22.14;24.59;98012.56;6210956;27;96969;-62
2023/03/13 11:43:14;;;;;;;;;2.00;2.00;;;;;21.91;25.43;98006.31;6212491;27;96319;-62
2023/03/13 11:46:39;;;;;;;;;5.40;5.00;;;;;21.39;25.52;98005.25;6237557;27;96784;-62
2023/03/13 11:50:05;;;;;;;;;4.00;3.00;;;;;21.09;25.60;97984.84;6275522;27;96971;-62
2023/03/13 11:53:24;;;;;;;;;2.00;2.00;;;;;20.61;25.43;98008.47;6207426;27;96494;-63
2023/03/13 11:56:36;;;;;;;;;4.00;4.00;;;;;20.04;26.45;97985.28;6212603;27;96381;-62
2023/03/13 11:59:51;;;;;;;;;2.00;2.00;;;;;20.03;26.55;97980.94;6212649;27;96617;-62
2023/03/13 12:03:03;;;;;;;;;3.00;3.00;;;;;19.74;26.49;97973.84;6290190;27;96354;-62
2023/03/13 12:06:20;;;;;;;;;6.00;6.00;;;;;19.60;26.87;97972.19;6278841;27;96593;-62
2023/03/13 12:09:37;;;;;;;;;2.50;2.50;;;;;19.63;27.15;97963.41;6212902;27;96430;-62
2023/03/13 12:12:47;;;;;;;;;1.50;1.50;;;;;19.45;26.96;97956.88;6229827;27;96220;-62
2023/03/13 12:15:54;;;;;;;;;2.60;2.60;;;;;19.49;27.21;97963.41;6227872;27;97555;-62
2023/03/13 12:18:58;;;;;;;;;2.80;2.80;;;;;19.56;27.34;97941.13;6261864;27;97135;-62
2023/03/13 12:22:14;;;;;;;;;3.00;3.00;;;;;19.50;27.00;97954.06;6210911;27;96311;-62
2023/03/13 12:25:21;;;;;;;;;3.00;3.00;;;;;19.51;27.39;97933.00;6281156;27;96286;-62
2023/03/13 12:28:32;;;;;;;;;3.00;3.00;;;;;19.47;27.85;97919.16;6210573;27;96294;-62
2023/03/13 12:31:40;;;;;;;;;4.00;3.00;;;;;19.41;28.06;97921.13;6256291;27;96672;-62
2023/03/13 12:34:55;;;;;;;;;5.00;4.00;;;;;18.84;28.38;97847.88;6273473;27;96880;-62
2023/03/13 12:38:05;;;;;;;;;4.00;3.00;;;;;19.26;28.56;97912.41;6280915;27;96629;-63
2023/03/13 12:41:19;;;;;;;;;3.00;3.00;;;;;19.18;28.13;97910.38;6215827;27;96753;-63
2023/03/13 12:44:24;;;;;;;;;3.00;3.00;;;;;19.38;28.21;97913.53;6284684;27;96665;-62
2023/03/13 12:47:32;;;;;;;;;5.00;5.00;;;;;19.40;27.65;97889.44;6210886;27;96289;-62
2023/03/13 12:50:48;;;;;;;;;2.50;2.50;;;;;19.41;27.50;97891.06;6215682;27;96236;-62
2023/03/13 12:54:15;;;;;;;;;4.00;4.00;;;;;19.60;27.23;97885.53;6284160;27;96231;-63
2023/03/13 12:57:38;;;;;;;;;3.80;3.00;;;;;19.85;26.89;97884.19;6292618;27;96992;-63
2023/03/13 13:00:46;;;;;;;;;2.80;2.80;;;;;19.95;26.75;97870.28;6222726;27;96360;-63
2023/03/13 13:03:55;;;;;;;;;3.80;3.80;;;;;20.04;26.53;97873.09;6284162;27;97866;-63
2023/03/13 13:07:01;;;;;;;;;2.60;1.60;;;;;20.08;26.75;97880.41;6215581;27;97324;-63
2023/03/13 13:10:19;;;;;;;;;2.00;2.00;;;;;19.85;26.21;97882.25;6271814;27;96252;-62
2023/03/13 13:13:30;;;;;;;;;1.00;1.00;;;;;19.81;26.78;97884.00;6204561;28;97423;-63
2023/03/13 13:16:35;;;;;;;;;2.80;2.80;;;;;19.65;26.32;97879.13;6200176;27;96319;-63
2023/03/13 13:19:46;;;;;;;;;3.25;3.00;;;;;19.50;26.24;97883.00;6273791;27;96468;-63
2023/03/13 13:22:50;;;;;;;;;3.00;3.00;;;;;19.35;26.52;97867.66;6278331;27;96305;-63
2023/03/13 13:25:56;;;;;;;;;3.00;2.00;;;;;19.02;26.50;97866.94;6256396;27;96678;-63
2023/03/13 13:29:01;;;;;;;;;3.50;3.00;;;;;19.06;27.29;97874.53;6207867;27;96236;-64
2023/03/13 13:32:15;;;;;;;;;2.50;2.00;;;;;18.96;27.38;97864.63;6272910;27;96813;-64
2023/03/13 13:35:27;;;;;;;;;5.00;4.00;;;;;18.94;27.51;97877.75;6268837;27;96643;-64
2023/03/13 13:38:35;;;;;;;;;3.00;3.00;;;;;18.87;27.96;97880.84;6275966;27;96221;-64
2023/03/13 13:41:40;;;;;;;;;3.40;3.40;;;;;18.86;28.81;97871.03;6278486;27;96502;-64
2023/03/13 13:44:57;;;;;;;;;4.00;4.00;;;;;18.84;29.06;97875.19;6261193;27;96679;-64
2023/03/13 13:48:29;;;;;;;;;3.60;3.20;;;;;18.89;28.84;97869.63;6206519;27;96554;-64
2023/03/13 13:51:32;;;;;;;;;3.40;3.40;;;;;18.82;29.96;97880.13;6279143;27;96543;-64
2023/03/13 13:54:54;;;;;;;;;3.00;3.00;;;;;18.74;30.03;97886.28;6278444;27;96674;-64
2023/03/13 13:58:03;;;;;;;;;6.00;5.60;;;;;18.68;30.74;97885.56;6272376;27;96832;-64
2023/03/13 14:01:10;;;;;;;;;3.00;3.00;;;;;18.24;31.85;97885.13;6258771;27;98426;-64
2023/03/13 14:04:19;;;;;;;;;3.00;2.80;;;;;18.19;32.74;97897.75;6263107;27;97435;-64
2023/03/13 14:07:29;;;;;;;;;4.00;3.00;;;;;18.16;33.00;97876.53;6266137;27;98350;-64
2023/03/13 14:10:37;;;;;;;;;3.25;2.25;;;;;18.07;33.33;97867.38;6273110;27;96640;-64
2023/03/13 14:13:41;;;;;;;;;2.00;2.00;;;;;18.02;34.34;97867.44;6260691;27;96932;-64
2023/03/13 14:16:46;;;;;;;;;3.00;3.00;;;;;17.84;35.02;97879.13;6197025;27;96625;-64
2023/03/13 14:19:51;;;;;;;;;3.00;3.00;;;;;17.65;35.57;97864.66;6198194;27;96702;-64
2023/03/13 14:22:56;;;;;;;;;4.00;4.00;;;;;17.44;36.20;97879.63;6297697;27;96659;-64
2023/03/13 14:26:15;;;;;;;;;3.00;3.00;;;;;17.28;36.93;97870.81;6283724;27;96747;-64
2023/03/13 14:29:24;;;;;;;;;3.00;3.00;;;;;17.17;36.89;97859.22;6255816;27;96608;-64
2023/03/13 14:32:28;;;;;;;;;3.00;3.00;;;;;17.02;37.42;97853.94;6259440;27;96896;-64
2023/03/13 14:35:59;;;;;;;;;4.00;3.00;;;;;16.97;37.51;97858.59;6252227;27;99071;-64
2023/03/13 14:39:18;;;;;;;;;3.25;3.00;;;;;17.17;37.55;97845.59;6245099;27;96719;-64
2023/03/13 14:42:28;;;;;;;;;3.00;3.00;;;;;17.22;37.27;97859.16;6199028;27;96926;-64
2023/03/13 14:45:33;;;;;;;;;5.00;5.00;;;;;17.24;37.57;97843.34;6263070;27;97021;-64
2023/03/13 14:48:37;;;;;;;;;3.80;3.80;;;;;17.33;37.27;97852.50;6205629;27;96323;-63